Time;durP1;ratioP1;P1;durP2;ratioP2;P2;SDS_P1;SDS_P2;PMS_P1;PMS_P2;Temp;Humidity;BMP_temperature;BMP_pressure;BME280_temperature;BME280_humidity;BME280_pressure;Samples;Min_cycle;Max_cycle;Signal;HPM_P1;HPM_P2
2023/09/30 00:02:12;;;;;;;14.40;5.90;;;12.20;99.90;;;;;;5054813;28;20041;-54
2023/09/30 00:04:38;;;;;;;17.30;4.88;;;12.30;99.90;;;;;;5065297;28;20449;-55
2023/09/30 00:07:05;;;;;;;11.52;3.92;;;12.30;99.90;;;;;;5048964;28;20124;-54
2023/09/30 00:09:30;;;;;;;21.10;5.75;;;12.30;99.90;;;;;;5055506;28;20075;-53
2023/09/30 00:11:56;;;;;;;19.10;6.07;;;12.30;99.90;;;;;;5056546;28;20122;-54
2023/09/30 00:14:22;;;;;;;19.17;5.17;;;12.30;99.90;;;;;;5052458;28;20028;-54
2023/09/30 00:16:47;;;;;;;17.95;4.78;;;12.30;99.90;;;;;;5048730;28;20375;-53
2023/09/30 00:19:13;;;;;;;17.50;4.07;;;12.20;99.90;;;;;;5053706;28;20060;-55
2023/09/30 00:21:39;;;;;;;20.25;4.82;;;12.20;99.90;;;;;;5054930;28;20123;-52
2023/09/30 00:24:05;;;;;;;12.57;4.10;;;12.10;99.90;;;;;;5054838;28;20488;-55
2023/09/30 00:26:31;;;;;;;16.15;4.55;;;12.10;99.90;;;;;;5057247;28;20033;-55
2023/09/30 00:28:56;;;;;;;11.52;3.35;;;12.10;99.90;;;;;;5055167;28;20033;-55
2023/09/30 00:31:22;;;;;;;11.15;3.53;;;12.10;99.90;;;;;;5053310;28;20032;-55
2023/09/30 00:33:48;;;;;;;14.93;4.10;;;12.10;99.90;;;;;;5055365;28;20079;-55
2023/09/30 00:36:13;;;;;;;19.42;4.85;;;12.10;99.90;;;;;;5057034;28;20499;-53
2023/09/30 00:38:42;;;;;;;20.38;5.40;;;12.10;99.90;;;;;;5058720;28;20039;-55
2023/09/30 00:41:08;;;;;;;14.30;5.03;;;12.10;99.90;;;;;;5060182;28;20043;-55
2023/09/30 00:43:34;;;;;;;14.70;4.40;;;12.10;99.90;;;;;;5057108;28;20032;-55
2023/09/30 00:46:13;;;;;;;19.85;4.88;;;12.10;99.90;;;;;;5060005;28;20335;-55
2023/09/30 00:48:39;;;;;;;14.18;3.85;;;12.10;99.90;;;;;;5058467;28;20108;-55
2023/09/30 00:51:05;;;;;;;18.92;4.47;;;12.10;99.90;;;;;;5056720;28;20535;-55
2023/09/30 00:53:31;;;;;;;18.27;4.45;;;12.10;99.90;;;;;;5053946;28;20120;-56
2023/09/30 00:55:58;;;;;;;18.45;4.43;;;12.10;99.90;;;;;;5051801;28;20075;-54
2023/09/30 00:58:28;;;;;;;17.60;5.03;;;12.10;99.90;;;;;;5054716;28;21132;-53
2023/09/30 01:00:56;;;;;;;26.73;5.45;;;12.10;99.90;;;;;;5055962;28;20029;-53
2023/09/30 01:03:22;;;;;;;19.15;5.03;;;12.10;99.90;;;;;;5055588;28;20054;-55
2023/09/30 01:05:49;;;;;;;17.10;3.70;;;12.10;99.90;;;;;;5058223;28;20052;-53
2023/09/30 01:08:19;;;;;;;17.17;4.85;;;12.10;99.90;;;;;;5058529;28;20056;-54
2023/09/30 01:10:45;;;;;;;16.35;4.13;;;12.10;99.90;;;;;;5059070;28;20036;-56
2023/09/30 01:13:11;;;;;;;9.13;3.95;;;12.10;99.90;;;;;;5059811;28;20108;-56
2023/09/30 01:15:37;;;;;;;17.23;4.32;;;12.00;99.90;;;;;;5059204;28;20124;-56
2023/09/30 01:18:03;;;;;;;20.55;5.45;;;12.10;99.90;;;;;;5059553;28;20033;-56
2023/09/30 01:20:29;;;;;;;15.95;5.55;;;12.10;99.90;;;;;;5059672;28;20037;-56
2023/09/30 01:22:57;;;;;;;15.20;5.03;;;12.10;99.90;;;;;;5057970;28;20044;-56
2023/09/30 01:25:23;;;;;;;13.02;4.47;;;12.10;99.90;;;;;;5059075;28;20098;-58
2023/09/30 01:27:51;;;;;;;15.73;4.90;;;12.10;99.90;;;;;;5057070;28;20119;-54
2023/09/30 01:30:17;;;;;;;18.83;4.75;;;12.10;99.90;;;;;;5055900;28;20079;-56
2023/09/30 01:32:44;;;;;;;13.80;4.25;;;12.10;99.90;;;;;;5060423;28;20491;-54
2023/09/30 01:35:09;;;;;;;;;;;12.10;99.90;;;;;;5056523;28;20032;-55
2023/09/30 01:37:36;;;;;;;18.60;4.85;;;12.00;99.90;;;;;;5055069;28;19922;-56
2023/09/30 01:40:03;;;;;;;19.70;5.38;;;12.10;99.90;;;;;;5052820;28;20047;-53
2023/09/30 01:42:29;;;;;;;19.02;5.43;;;12.10;99.90;;;;;;5061501;28;20056;-55
2023/09/30 01:44:56;;;;;;;22.60;5.78;;;12.10;99.90;;;;;;5056118;28;20037;-54
2023/09/30 01:47:22;;;;;;;14.95;5.10;;;12.00;99.90;;;;;;5052906;28;20102;-54
2023/09/30 01:49:47;;;;;;;14.90;4.90;;;12.00;99.90;;;;;;5055912;28;20037;-50
2023/09/30 01:52:13;;;;;;;12.60;4.82;;;12.00;99.90;;;;;;5057840;28;20025;-52
2023/09/30 01:54:39;;;;;;;20.15;5.78;;;12.00;99.90;;;;;;5061291;28;20060;-52
2023/09/30 01:57:04;;;;;;;15.30;5.03;;;11.90;99.90;;;;;;5058800;28;20040;-54
2023/09/30 01:59:30;;;;;;;19.90;5.50;;;11.90;99.90;;;;;;5060554;28;20033;-53
2023/09/30 02:01:56;;;;;;;18.08;5.68;;;12.00;99.90;;;;;;5056742;28;20163;-56
2023/09/30 02:04:21;;;;;;;19.95;5.78;;;11.90;99.90;;;;;;5058049;28;20049;-55
2023/09/30 02:06:47;;;;;;;25.65;5.57;;;11.90;99.90;;;;;;5051614;28;20522;-55
2023/09/30 02:09:12;;;;;;;18.10;5.13;;;11.90;99.90;;;;;;5054808;28;20251;-56
2023/09/30 02:11:41;;;;;;;19.25;5.85;;;12.00;99.90;;;;;;5057877;28;20041;-56
2023/09/30 02:14:06;;;;;;;19.23;5.45;;;12.00;99.90;;;;;;5055226;28;20453;-55
2023/09/30 02:16:32;;;;;;;18.40;4.65;;;12.00;99.90;;;;;;5055988;28;20048;-55
2023/09/30 02:18:58;;;;;;;12.82;5.53;;;11.90;99.90;;;;;;5054112;28;20091;-53
2023/09/30 02:21:23;;;;;;;16.90;4.72;;;11.90;99.90;;;;;;5054023;28;20044;-55
2023/09/30 02:23:49;;;;;;;15.05;5.22;;;11.90;99.90;;;;;;5056634;28;20115;-55
2023/09/30 02:26:15;;;;;;;15.07;5.07;;;11.90;99.90;;;;;;5054493;28;20242;-56
2023/09/30 02:28:41;;;;;;;15.80;5.68;;;11.90;99.90;;;;;;5054077;28;20051;-55
2023/09/30 02:31:09;;;;;;;18.90;5.95;;;11.90;99.90;;;;;;5055086;28;20045;-56
2023/09/30 02:33:35;;;;;;;13.20;4.75;;;11.90;99.90;;;;;;5060575;28;20037;-55
2023/09/30 02:36:01;;;;;;;22.33;5.65;;;11.90;99.90;;;;;;5054852;28;20399;-55
2023/09/30 02:38:27;;;;;;;22.92;6.45;;;11.90;99.90;;;;;;5057786;28;20526;-56
2023/09/30 02:40:54;;;;;;;16.75;5.70;;;11.90;99.90;;;;;;5058740;28;20037;-55
2023/09/30 02:43:20;;;;;;;13.05;4.95;;;11.90;99.90;;;;;;5057071;28;20047;-56
2023/09/30 02:45:46;;;;;;;21.08;6.45;;;11.90;99.90;;;;;;5056838;28;20435;-56
2023/09/30 02:48:12;;;;;;;14.00;5.05;;;11.90;99.90;;;;;;5056013;28;20056;-55
2023/09/30 02:50:39;;;;;;;12.38;4.45;;;11.90;99.90;;;;;;5058364;28;20032;-56
2023/09/30 02:53:05;;;;;;;10.00;4.47;;;11.90;99.90;;;;;;5052612;28;20475;-54
2023/09/30 02:55:30;;;;;;;17.27;5.03;;;11.90;99.90;;;;;;5055110;28;20033;-55
2023/09/30 02:57:57;;;;;;;;;;;11.90;99.90;;;;;;5057352;28;20046;-56
2023/09/30 03:00:23;;;;;;;16.10;5.18;;;11.90;99.90;;;;;;5047429;28;19969;-56
2023/09/30 03:02:50;;;;;;;12.85;4.57;;;11.90;99.90;;;;;;5052459;28;20045;-56
2023/09/30 03:05:17;;;;;;;13.43;4.75;;;11.90;99.90;;;;;;5051916;28;20041;-54
2023/09/30 03:07:42;;;;;;;;;;;11.90;99.90;;;;;;5055589;28;20071;-54
2023/09/30 03:10:08;;;;;;;23.15;5.50;;;11.90;99.90;;;;;;5069202;28;19963;-54
2023/09/30 03:12:35;;;;;;;20.67;6.07;;;11.90;99.90;;;;;;5065048;28;20043;-52
2023/09/30 03:15:04;;;;;;;14.70;5.28;;;11.80;99.90;;;;;;5064799;28;20043;-54
2023/09/30 03:17:30;;;;;;;15.93;5.28;;;11.80;99.90;;;;;;5063538;28;20068;-54
2023/09/30 03:19:57;;;;;;;15.48;5.20;;;11.80;99.90;;;;;;5065983;28;20412;-56
2023/09/30 03:22:22;;;;;;;17.45;6.30;;;11.80;99.90;;;;;;5066596;28;20127;-52
2023/09/30 03:24:48;;;;;;;13.60;4.90;;;11.80;99.90;;;;;;5066137;28;20483;-50
2023/09/30 03:27:15;;;;;;;16.13;5.15;;;11.80;99.90;;;;;;5065858;28;20414;-56
2023/09/30 03:29:41;;;;;;;10.50;4.70;;;11.70;99.90;;;;;;5067595;28;20432;-51
2023/09/30 03:32:06;;;;;;;17.30;6.60;;;11.70;99.90;;;;;;5060658;28;20028;-51
2023/09/30 03:34:36;;;;;;;13.05;5.07;;;11.70;99.90;;;;;;5059746;28;20462;-55
2023/09/30 03:37:02;;;;;;;19.65;6.00;;;11.70;99.90;;;;;;5052203;28;20052;-55
2023/09/30 03:39:28;;;;;;;16.67;5.38;;;11.70;99.90;;;;;;5055313;28;20041;-52
2023/09/30 03:41:58;;;;;;;13.57;5.53;;;11.70;99.90;;;;;;5052358;28;20037;-53
2023/09/30 03:44:23;;;;;;;17.77;6.75;;;11.70;99.90;;;;;;5055014;28;20282;-54
2023/09/30 03:46:51;;;;;;;16.53;5.07;;;11.70;99.90;;;;;;5052121;28;20052;-54
2023/09/30 03:49:16;;;;;;;14.68;5.18;;;11.70;99.90;;;;;;5050815;28;20297;-51
2023/09/30 03:51:42;;;;;;;14.43;5.63;;;11.70;99.90;;;;;;5056573;28;20063;-52
2023/09/30 03:54:08;;;;;;;11.50;5.93;;;11.80;99.90;;;;;;5055519;28;20286;-56
2023/09/30 03:56:34;;;;;;;11.00;5.43;;;11.70;99.90;;;;;;5056100;28;20084;-54
2023/09/30 03:58:59;;;;;;;20.60;6.18;;;11.70;99.90;;;;;;5054573;28;20068;-51
2023/09/30 04:01:26;;;;;;;17.15;6.25;;;11.70;99.90;;;;;;5055510;28;20482;-53
2023/09/30 04:03:56;;;;;;;14.80;5.32;;;11.70;99.90;;;;;;5057262;28;20124;-56
2023/09/30 04:06:22;;;;;;;14.52;5.32;;;11.70;99.90;;;;;;5055676;28;20171;-54
2023/09/30 04:08:47;;;;;;;17.30;6.90;;;11.70;99.90;;;;;;5056718;28;20124;-56
2023/09/30 04:11:17;;;;;;;13.27;5.50;;;11.70;99.90;;;;;;5058663;28;20037;-55
2023/09/30 04:13:44;;;;;;;11.80;5.13;;;11.70;99.90;;;;;;5058832;28;20049;-51
2023/09/30 04:16:10;;;;;;;17.58;6.25;;;11.70;99.90;;;;;;5065046;28;20082;-54
2023/09/30 04:18:36;;;;;;;18.10;6.57;;;11.70;99.90;;;;;;5062937;28;20040;-55
2023/09/30 04:21:02;;;;;;;17.73;5.57;;;11.60;99.90;;;;;;5056955;28;20495;-55
2023/09/30 04:23:28;;;;;;;14.18;5.57;;;11.70;99.90;;;;;;5057488;28;20059;-54
2023/09/30 04:25:53;;;;;;;19.80;6.07;;;11.70;99.90;;;;;;5057303;28;20032;-52
2023/09/30 04:28:20;;;;;;;21.55;7.13;;;11.60;99.90;;;;;;5055212;28;20029;-52
2023/09/30 04:30:50;;;;;;;14.20;5.65;;;11.60;99.90;;;;;;5056479;28;20120;-53
2023/09/30 04:33:19;;;;;;;15.75;7.25;;;11.60;99.90;;;;;;5055555;28;20267;-50
2023/09/30 04:35:45;;;;;;;13.43;6.68;;;11.70;99.90;;;;;;5059509;28;20043;-54
2023/09/30 04:38:11;;;;;;;15.93;7.00;;;11.70;99.90;;;;;;5057354;28;20428;-56
2023/09/30 04:40:37;;;;;;;14.70;6.88;;;11.70;99.90;;;;;;5062395;28;20054;-52
2023/09/30 04:43:05;;;;;;;18.30;6.90;;;11.70;99.90;;;;;;5055756;28;20482;-52
2023/09/30 04:45:31;;;;;;;19.10;7.00;;;11.70;99.90;;;;;;5061733;28;20340;-53
2023/09/30 04:47:57;;;;;;;19.52;8.38;;;11.70;99.90;;;;;;5059408;28;20060;-53
2023/09/30 04:50:22;;;;;;;20.88;8.15;;;11.70;99.90;;;;;;5062596;28;20511;-53
2023/09/30 04:52:48;;;;;;;17.92;7.43;;;11.70;99.90;;;;;;5058946;28;20511;-53
2023/09/30 04:55:18;;;;;;;17.33;7.57;;;11.70;99.90;;;;;;5059303;28;20462;-53
2023/09/30 04:57:48;;;;;;;23.13;9.20;;;11.70;99.90;;;;;;5059260;28;20040;-54
2023/09/30 05:00:16;;;;;;;19.65;8.00;;;11.70;99.90;;;;;;5054939;28;20084;-54
2023/09/30 05:02:44;;;;;;;22.70;9.30;;;11.70;99.90;;;;;;5058429;28;20041;-55
2023/09/30 05:05:10;;;;;;;20.20;9.05;;;11.70;99.90;;;;;;5056675;28;20048;-53
2023/09/30 05:07:36;;;;;;;19.98;8.65;;;11.70;99.90;;;;;;5056740;28;20056;-53
2023/09/30 05:10:10;;;;;;;22.35;8.52;;;11.70;99.90;;;;;;5055244;28;20045;-53
2023/09/30 05:12:36;;;;;;;19.98;9.40;;;11.80;99.90;;;;;;5056375;28;20033;-53
2023/09/30 05:15:01;;;;;;;18.33;8.27;;;11.80;99.90;;;;;;5054689;28;20090;-55
2023/09/30 05:17:28;;;;;;;17.38;8.68;;;11.70;99.90;;;;;;5060709;28;20112;-53
2023/09/30 05:19:55;;;;;;;17.48;8.10;;;11.70;99.90;;;;;;5056199;28;20131;-54
2023/09/30 05:22:23;;;;;;;14.77;7.55;;;11.70;99.90;;;;;;5057775;28;20037;-52
2023/09/30 05:24:51;;;;;;;19.48;8.98;;;11.70;99.90;;;;;;5059147;28;20032;-55
2023/09/30 05:27:18;;;;;;;22.55;9.75;;;11.70;99.90;;;;;;5056465;28;20045;-53
2023/09/30 05:29:43;;;;;;;18.27;8.48;;;11.70;99.90;;;;;;5058075;28;20029;-56
2023/09/30 05:32:09;;;;;;;17.65;7.95;;;11.70;99.90;;;;;;5060487;28;20403;-54
2023/09/30 05:34:34;;;;;;;16.00;8.52;;;11.70;99.90;;;;;;5059305;28;20033;-54
2023/09/30 05:37:01;;;;;;;19.55;8.02;;;11.70;99.90;;;;;;5047628;28;20488;-51
2023/09/30 05:39:28;;;;;;;22.30;10.38;;;11.60;99.90;;;;;;5057260;28;20049;-54
2023/09/30 05:41:55;;;;;;;20.85;9.27;;;11.60;99.90;;;;;;5049875;28;20557;-50
2023/09/30 05:44:21;;;;;;;16.15;8.85;;;11.60;99.90;;;;;;5053774;28;20045;-54
2023/09/30 05:46:47;;;;;;;17.88;8.85;;;11.60;99.90;;;;;;5059044;28;20644;-52
2023/09/30 05:49:13;;;;;;;18.95;8.43;;;11.50;99.90;;;;;;5061658;28;20037;-51
2023/09/30 05:51:42;;;;;;;23.35;9.50;;;11.50;99.90;;;;;;5066209;28;20547;-55
2023/09/30 05:54:09;;;;;;;15.73;7.93;;;11.50;99.90;;;;;;5067952;28;20237;-56
2023/09/30 05:56:37;;;;;;;14.95;8.73;;;11.50;99.90;;;;;;5061745;28;20041;-50
2023/09/30 05:59:04;;;;;;;19.15;8.95;;;11.50;99.90;;;;;;5056634;28;20392;-54
2023/09/30 06:01:32;;;;;;;17.92;9.02;;;11.50;99.90;;;;;;5058775;28;20437;-51
2023/09/30 06:03:58;;;;;;;19.33;8.98;;;11.60;99.90;;;;;;5057801;28;20049;-56
2023/09/30 06:06:24;;;;;;;16.52;8.50;;;11.60;99.90;;;;;;5051559;28;20518;-55
2023/09/30 06:08:50;;;;;;;16.92;9.15;;;11.70;99.90;;;;;;5069886;28;20032;-56
2023/09/30 06:11:24;;;;;;;17.83;8.50;;;11.80;99.90;;;;;;5069851;28;20410;-55
2023/09/30 06:13:54;;;;;;;16.15;8.20;;;11.90;99.90;;;;;;5068876;28;20036;-52
2023/09/30 06:16:20;;;;;;;17.42;8.90;;;12.00;99.90;;;;;;5064090;28;20511;-52
2023/09/30 06:18:46;;;;;;;20.30;9.77;;;12.20;99.90;;;;;;5062654;28;20032;-55
2023/09/30 06:21:14;;;;;;;15.10;8.38;;;12.30;99.90;;;;;;5063672;28;20568;-54
2023/09/30 06:23:40;;;;;;;17.77;7.55;;;12.50;99.90;;;;;;5067817;28;20036;-53
2023/09/30 06:26:05;;;;;;;17.48;8.27;;;12.70;99.90;;;;;;5065271;28;20085;-55
2023/09/30 06:28:33;;;;;;;16.52;8.38;;;12.90;99.90;;;;;;5066658;28;20511;-56
2023/09/30 06:30:59;;;;;;;12.07;6.90;;;13.10;99.90;;;;;;5067772;28;20032;-56
2023/09/30 06:33:25;;;;;;;15.35;8.52;;;13.30;99.90;;;;;;5065274;28;20032;-55
2023/09/30 06:35:50;;;;;;;16.95;6.95;;;13.50;99.90;;;;;;5070137;28;20063;-55
2023/09/30 06:38:20;;;;;;;14.23;7.53;;;13.60;99.90;;;;;;5067013;28;20122;-55
2023/09/30 06:40:47;;;;;;;18.95;7.85;;;13.70;99.90;;;;;;5067208;28;20052;-55
2023/09/30 06:43:16;;;;;;;19.10;9.43;;;13.80;99.90;;;;;;5069620;28;20051;-54
2023/09/30 06:45:46;;;;;;;21.17;9.80;;;13.90;99.90;;;;;;5056630;28;20045;-56
2023/09/30 06:48:13;;;;;;;20.05;8.63;;;13.90;99.90;;;;;;5060735;28;20074;-54
2023/09/30 06:50:48;;;;;;;17.02;9.32;;;13.80;99.90;;;;;;5058397;28;20024;-56
2023/09/30 06:53:17;;;;;;;15.50;8.10;;;13.70;99.90;;;;;;5065306;28;20032;-56
2023/09/30 06:55:43;;;;;;;12.40;8.60;;;13.60;99.90;;;;;;5074337;28;20047;-56
2023/09/30 06:58:10;;;;;;;20.15;9.38;;;13.50;99.90;;;;;;5074037;28;20115;-56
2023/09/30 07:00:43;;;;;;;16.88;10.43;;;13.50;99.90;;;;;;5067755;28;20332;-56
2023/09/30 07:03:09;;;;;;;19.15;9.38;;;13.50;99.90;;;;;;5065855;28;20650;-56
2023/09/30 07:05:36;;;;;;;24.50;10.82;;;13.40;99.90;;;;;;5067856;28;20044;-54
2023/09/30 07:08:02;;;;;;;16.02;9.98;;;13.40;99.90;;;;;;5069353;28;20060;-51
2023/09/30 07:10:29;;;;;;;16.77;10.27;;;13.40;99.90;;;;;;5068667;28;20499;-54
2023/09/30 07:12:55;;;;;;;26.08;10.38;;;13.40;99.90;;;;;;5069302;28;20079;-52
2023/09/30 07:15:21;;;;;;;21.30;10.70;;;13.50;99.90;;;;;;5065897;28;20093;-53
2023/09/30 07:17:47;;;;;;;19.38;10.02;;;13.40;99.90;;;;;;5063941;28;20487;-56
2023/09/30 07:20:14;;;;;;;23.90;12.30;;;13.50;99.90;;;;;;5065375;28;20044;-54
2023/09/30 07:22:40;;;;;;;20.17;10.60;;;13.60;99.90;;;;;;5064981;28;20089;-56
2023/09/30 07:25:07;;;;;;;18.10;10.27;;;13.60;99.90;;;;;;5065654;28;20055;-54
2023/09/30 07:27:33;;;;;;;23.88;11.13;;;13.80;99.90;;;;;;5063703;28;20033;-55
2023/09/30 07:29:59;;;;;;;21.30;10.35;;;13.80;99.90;;;;;;5068724;28;20052;-56
2023/09/30 07:32:25;;;;;;;19.13;10.93;;;13.80;99.90;;;;;;5066588;28;20174;-55
2023/09/30 07:34:51;;;;;;;22.05;12.65;;;13.90;99.90;;;;;;5061661;28;20559;-56
2023/09/30 07:37:20;;;;;;;;;;;13.90;99.90;;;;;;5050665;28;20088;-57
2023/09/30 07:39:46;;;;;;;22.08;11.50;;;14.00;99.90;;;;;;5055773;28;19916;-56
2023/09/30 07:42:11;;;;;;;20.00;11.48;;;14.10;99.90;;;;;;5057956;28;20047;-57
2023/09/30 07:44:37;;;;;;;26.02;11.88;;;14.10;99.90;;;;;;5056009;28;20162;-55
2023/09/30 07:47:06;;;;;;;20.48;11.95;;;14.20;99.90;;;;;;5051511;28;20503;-56
2023/09/30 07:49:32;;;;;;;21.33;12.00;;;14.30;99.90;;;;;;5054139;28;20557;-53
2023/09/30 07:51:58;;;;;;;;;;;14.30;99.90;;;;;;5056272;28;20044;-55
2023/09/30 07:54:23;;;;;;;19.60;11.98;;;14.40;99.90;;;;;;5064635;28;19916;-56
2023/09/30 07:56:49;;;;;;;23.17;12.38;;;14.40;99.90;;;;;;5062050;28;20388;-53
2023/09/30 07:59:15;;;;;;;22.08;12.45;;;14.50;99.90;;;;;;5054308;28;20036;-54
2023/09/30 08:01:41;;;;;;;18.40;11.88;;;14.50;99.90;;;;;;5059617;28;20056;-56
2023/09/30 08:04:07;;;;;;;25.20;13.02;;;14.60;99.90;;;;;;5055391;28;20037;-56
2023/09/30 08:06:33;;;;;;;18.52;11.48;;;14.70;99.90;;;;;;5047695;28;20400;-57
2023/09/30 08:08:58;;;;;;;24.67;12.00;;;14.80;99.90;;;;;;5051719;28;20075;-53
2023/09/30 08:11:27;;;;;;;22.38;12.20;;;14.90;99.90;;;;;;5050465;28;20075;-57
2023/09/30 08:13:53;;;;;;;17.95;11.88;;;15.00;99.90;;;;;;5044497;28;20065;-54
2023/09/30 08:16:19;;;;;;;20.95;12.70;;;15.10;99.90;;;;;;5050105;28;20040;-57
2023/09/30 08:18:45;;;;;;;24.65;12.75;;;15.10;99.90;;;;;;5057961;28;20043;-57
2023/09/30 08:21:11;;;;;;;;;;;15.10;99.90;;;;;;5055008;28;20518;-54
2023/09/30 08:23:38;;;;;;;20.05;11.23;;;15.10;99.90;;;;;;5057578;28;19921;-56
2023/09/30 08:26:05;;;;;;;24.15;12.50;;;15.10;99.90;;;;;;5058655;28;20053;-56
2023/09/30 08:28:31;;;;;;;18.98;11.85;;;15.10;99.90;;;;;;5048190;28;20032;-53
2023/09/30 08:31:05;;;;;;;20.58;12.40;;;15.10;99.90;;;;;;5047008;28;20045;-57
2023/09/30 08:33:32;;;;;;;23.23;13.60;;;15.10;99.90;;;;;;5054049;28;20068;-56
2023/09/30 08:36:07;;;;;;;;;;;15.10;99.90;;;;;;5052586;28;20700;-56
2023/09/30 08:38:37;;;;;;;20.55;12.00;;;15.10;99.90;;;;;;5052068;28;19931;-57
2023/09/30 08:41:03;;;;;;;25.65;13.43;;;15.10;99.90;;;;;;5048465;28;20041;-56
2023/09/30 08:43:31;;;;;;;22.85;13.32;;;15.00;99.90;;;;;;5051747;28;20036;-56
2023/09/30 08:45:59;;;;;;;26.30;13.90;;;15.00;99.90;;;;;;5047857;28;20063;-55
2023/09/30 08:48:27;;;;;;;22.73;12.90;;;15.00;99.90;;;;;;5053704;28;20533;-55
2023/09/30 08:50:54;;;;;;;24.00;13.52;;;15.00;99.90;;;;;;5054886;28;20132;-55
2023/09/30 08:53:20;;;;;;;25.52;12.63;;;15.10;99.90;;;;;;5055690;28;20391;-59
2023/09/30 08:55:46;;;;;;;23.17;13.70;;;15.10;99.90;;;;;;5057592;28;20083;-56
2023/09/30 08:58:13;;;;;;;21.92;13.98;;;15.10;99.90;;;;;;5050724;28;20044;-56
2023/09/30 09:00:39;;;;;;;20.90;14.02;;;15.00;99.90;;;;;;5059134;28;20040;-56
2023/09/30 09:03:07;;;;;;;27.00;14.13;;;15.00;99.90;;;;;;5057021;28;20045;-57
2023/09/30 09:05:33;;;;;;;26.75;13.50;;;15.00;99.90;;;;;;5061236;28;20052;-56
2023/09/30 09:07:59;;;;;;;27.05;15.60;;;15.00;99.90;;;;;;5060868;28;20029;-56
2023/09/30 09:10:24;;;;;;;20.98;14.52;;;15.00;99.90;;;;;;5055683;28;20040;-54
2023/09/30 09:12:58;;;;;;;23.90;14.82;;;15.10;99.90;;;;;;5057428;28;20484;-55
2023/09/30 09:15:26;;;;;;;24.10;14.10;;;15.30;99.90;;;;;;5057089;28;21518;-53
2023/09/30 09:17:52;;;;;;;21.55;14.55;;;15.40;99.90;;;;;;5052483;28;20120;-57
2023/09/30 09:20:23;;;;;;;25.35;15.77;;;15.50;99.90;;;;;;5050993;28;20399;-57
2023/09/30 09:22:52;;;;;;;27.17;14.70;;;15.70;99.90;;;;;;5054039;28;20047;-58
2023/09/30 09:25:18;;;;;;;25.80;14.18;;;15.80;99.90;;;;;;5046460;28;20392;-57
2023/09/30 09:27:44;;;;;;;23.27;14.88;;;15.90;99.90;;;;;;5043149;28;20095;-57
2023/09/30 09:30:26;;;;;;;20.65;15.35;;;16.00;99.90;;;;;;5043082;28;20132;-56
2023/09/30 09:33:05;;;;;;;25.58;14.98;;;16.20;99.90;;;;;;5055601;28;20037;-57
2023/09/30 09:35:33;;;;;;;24.25;13.90;;;16.30;99.90;;;;;;5052365;28;20036;-60
2023/09/30 09:38:06;;;;;;;24.50;13.93;;;16.50;99.90;;;;;;5054644;28;20518;-58
2023/09/30 09:40:34;;;;;;;20.85;12.55;;;16.60;99.90;;;;;;5054564;28;20126;-54
2023/09/30 09:43:04;;;;;;;23.80;13.32;;;16.80;99.90;;;;;;5050972;28;20045;-56
2023/09/30 09:45:32;;;;;;;23.60;13.48;;;16.90;99.90;;;;;;5050365;28;20048;-56
2023/09/30 09:47:59;;;;;;;19.73;12.02;;;17.00;99.90;;;;;;5055296;28;20127;-57
2023/09/30 09:50:25;;;;;;;;;;;17.10;99.90;;;;;;5056558;28;20079;-57
2023/09/30 09:52:53;;;;;;;18.25;12.32;;;17.20;99.90;;;;;;5055304;28;19994;-57
2023/09/30 09:55:23;;;;;;;18.85;11.48;;;17.40;99.90;;;;;;5050460;28;20144;-56
2023/09/30 09:57:49;;;;;;;22.63;11.18;;;17.50;99.90;;;;;;5056132;28;20037;-56
2023/09/30 10:00:16;;;;;;;;;;;17.60;99.90;;;;;;5057519;28;20119;-58
2023/09/30 10:02:42;;;;;;;19.33;10.82;;;17.70;99.90;;;;;;5052636;28;19936;-54
2023/09/30 10:05:09;;;;;;;;;;;17.80;99.90;;;;;;5055303;28;20037;-58
2023/09/30 10:07:38;;;;;;;15.70;9.80;;;17.90;99.90;;;;;;5048930;28;19951;-56
2023/09/30 10:10:08;;;;;;;17.55;9.48;;;17.90;99.90;;;;;;5050986;28;20120;-56
2023/09/30 10:12:40;;;;;;;19.60;10.23;;;18.00;99.90;;;;;;5048706;28;20116;-57
2023/09/30 10:15:24;;;;;;;18.75;8.70;;;18.10;99.90;;;;;;5050235;28;20041;-55
2023/09/30 10:18:02;;;;;;;13.77;7.13;;;18.20;99.90;;;;;;5045433;28;20041;-57
2023/09/30 10:20:29;;;;;;;15.82;7.18;;;18.30;99.90;;;;;;5051343;28;20033;-57
2023/09/30 10:23:17;;;;;;;18.75;7.63;;;18.40;99.90;;;;;;5050860;28;20040;-57
2023/09/30 10:25:47;;;;;;;;;;;18.50;99.90;;;;;;5047622;28;20064;-57
2023/09/30 10:28:35;;;;;;;10.60;5.97;;;18.60;99.90;;;;;;5047615;28;20387;-57
2023/09/30 10:31:12;;;;;;;23.60;8.05;;;18.70;99.90;;;;;;5051268;28;20037;-58
2023/09/30 10:33:56;;;;;;;;;;;18.80;99.90;;;;;;5056408;28;20040;-57
2023/09/30 10:36:33;;;;;;;10.38;5.13;;;18.90;99.90;;;;;;5052046;28;19921;-58
2023/09/30 10:39:00;;;;;;;17.58;7.07;;;19.00;99.90;;;;;;5050445;28;20419;-57
2023/09/30 10:41:41;;;;;;;15.48;6.70;;;19.10;99.90;;;;;;5050140;28;20070;-57
2023/09/30 10:44:22;;;;;;;10.75;5.13;;;19.20;99.90;;;;;;5050887;28;20041;-57
2023/09/30 10:46:49;;;;;;;15.15;4.55;;;19.20;99.90;;;;;;5054885;28;20127;-57
2023/09/30 10:49:24;;;;;;;9.02;4.90;;;19.30;99.90;;;;;;5050170;28;20037;-58
2023/09/30 10:51:57;;;;;;;11.38;4.45;;;19.40;99.90;;;;;;5051439;28;20032;-58
2023/09/30 10:54:24;;;;;;;11.88;4.55;;;19.50;99.90;;;;;;5054990;28;20547;-56
2023/09/30 10:56:50;;;;;;;11.90;3.47;;;19.60;99.90;;;;;;5058256;28;20499;-57
2023/09/30 10:59:23;;;;;;;12.30;4.28;;;19.60;99.90;;;;;;5052310;28;20043;-57
2023/09/30 11:01:49;;;;;;;10.35;3.90;;;19.70;99.90;;;;;;5052910;28;21085;-57
2023/09/30 11:04:15;;;;;;;19.50;2.88;;;19.70;99.90;;;;;;5049887;28;20044;-58
2023/09/30 11:06:42;;;;;;;10.38;3.45;;;19.80;99.90;;;;;;5043480;28;20041;-58
2023/09/30 11:09:14;;;;;;;8.88;2.90;;;19.90;99.90;;;;;;5050180;28;20044;-57
2023/09/30 11:11:43;;;;;;;32.22;4.80;;;19.80;99.90;;;;;;5051598;28;20029;-57
2023/09/30 11:14:23;;;;;;;10.35;2.83;;;19.70;99.90;;;;;;5053280;28;20037;-57
2023/09/30 11:16:51;;;;;;;13.18;3.30;;;19.60;99.90;;;;;;5053501;28;20083;-57
2023/09/30 11:19:17;;;;;;;15.07;3.17;;;19.50;99.90;;;;;;5049562;28;20076;-57
2023/09/30 11:21:45;;;;;;;;;;;19.40;99.90;;;;;;5054210;28;20174;-57
2023/09/30 11:24:12;;;;;;;9.98;2.70;;;19.40;99.90;;;;;;5048010;28;19970;-57
2023/09/30 11:26:38;;;;;;;23.65;4.03;;;19.50;99.90;;;;;;5054324;28;20048;-57
2023/09/30 11:29:15;;;;;;;58.63;5.90;;;19.60;99.90;;;;;;5047832;28;20044;-58
2023/09/30 11:31:47;;;;;;;25.83;3.13;;;19.60;99.90;;;;;;5051742;28;20064;-57
2023/09/30 11:34:15;;;;;;;6.53;1.20;;;19.60;99.90;;;;;;5053264;28;20108;-56
2023/09/30 11:36:48;;;;;;;8.90;1.65;;;19.50;99.90;;;;;;5057151;28;20097;-55
2023/09/30 11:39:24;;;;;;;10.60;1.38;;;19.50;99.90;;;;;;5054847;28;20068;-58
2023/09/30 11:41:50;;;;;;;10.93;2.13;;;19.50;99.90;;;;;;5061960;28;20503;-57
2023/09/30 11:44:17;;;;;;;;;;;19.60;99.90;;;;;;5063901;28;20571;-57
2023/09/30 11:46:59;;;;;;;8.23;1.92;;;19.70;99.90;;;;;;5047403;28;19929;-58
2023/09/30 11:49:48;;;;;;;12.90;1.92;;;19.60;99.90;;;;;;5055488;28;20520;-58
2023/09/30 11:52:17;;;;;;;12.27;1.83;;;19.60;99.90;;;;;;5054738;28;20498;-58
2023/09/30 11:54:44;;;;;;;8.32;1.83;;;19.50;99.90;;;;;;5060090;28;20086;-55
2023/09/30 11:57:16;;;;;;;6.25;1.27;;;19.40;99.90;;;;;;5053722;28;20518;-57
2023/09/30 11:59:44;;;;;;;10.38;2.08;;;19.30;99.90;;;;;;5052017;28;20110;-57
2023/09/30 12:02:11;;;;;;;12.93;1.70;;;19.20;99.90;;;;;;5049485;28;20047;-56
2023/09/30 12:04:38;;;;;;;14.00;2.65;;;19.20;99.90;;;;;;5057141;28;20051;-53
2023/09/30 12:07:06;;;;;;;7.03;1.35;;;19.30;99.90;;;;;;5052784;28;20033;-54
2023/09/30 12:09:32;;;;;;;10.38;1.50;;;19.40;99.90;;;;;;5048963;28;20037;-54
2023/09/30 12:11:58;;;;;;;6.68;1.67;;;19.50;99.90;;;;;;5054428;28;20044;-57
2023/09/30 12:14:24;;;;;;;;;;;19.50;99.90;;;;;;5047824;28;20040;-58
2023/09/30 12:16:50;;;;;;;4.90;1.20;;;19.60;99.90;;;;;;5051748;28;19927;-56
2023/09/30 12:19:19;;;;;;;9.45;1.08;;;19.80;99.90;;;;;;5051271;28;20078;-56
2023/09/30 12:21:47;;;;;;;8.25;1.25;;;20.00;99.90;;;;;;5051589;28;20045;-57
2023/09/30 12:24:19;;;;;;;11.80;2.45;;;20.10;99.90;;;;;;5057830;28;20467;-57
2023/09/30 12:26:48;;;;;;;5.40;0.95;;;20.20;99.90;;;;;;5047399;28;20036;-56
2023/09/30 12:29:18;;;;;;;3.67;0.82;;;20.30;99.90;;;;;;5049590;28;20036;-56
2023/09/30 12:31:48;;;;;;;6.85;1.42;;;20.40;99.90;;;;;;5056020;28;20384;-57
2023/09/30 12:34:15;;;;;;;6.15;1.48;;;20.40;99.90;;;;;;5050381;28;20038;-56
2023/09/30 12:36:41;;;;;;;6.88;1.20;;;20.40;99.90;;;;;;5056356;28;20043;-55
2023/09/30 12:39:11;;;;;;;6.55;1.58;;;20.40;99.90;;;;;;5057073;28;20064;-53
2023/09/30 12:41:40;;;;;;;6.25;0.95;;;20.50;99.90;;;;;;5055171;28;20170;-54
2023/09/30 12:44:07;;;;;;;11.15;1.90;;;20.50;99.90;;;;;;5057896;28;20090;-56